sensor_id;sensor_type;location;lat;lon;timestamp;P1;durP1;ratioP1;P2;durP2;ratioP2
78925;SDS011;68321;51.276;7.208;2023-05-23T00:00:56;12.37;;;6.80;;
78925;SDS011;68321;51.276;7.208;2023-05-23T00:03:22;15.55;;;8.35;;
78925;SDS011;68321;51.276;7.208;2023-05-23T00:05:48;13.40;;;7.65;;
78925;SDS011;68321;51.276;7.208;2023-05-23T00:08:14;13.63;;;8.32;;
78925;SDS011;68321;51.276;7.208;2023-05-23T00:10:40;14.07;;;9.18;;
78925;SDS011;68321;51.276;7.208;2023-05-23T00:13:05;15.52;;;8.82;;
78925;SDS011;68321;51.276;7.208;2023-05-23T00:15:33;13.02;;;8.77;;
78925;SDS011;68321;51.276;7.208;2023-05-23T00:18:01;13.05;;;8.93;;
78925;SDS011;68321;51.276;7.208;2023-05-23T00:20:26;9.95;;;7.38;;
78925;SDS011;68321;51.276;7.208;2023-05-23T00:22:52;12.35;;;8.77;;
78925;SDS011;68321;51.276;7.208;2023-05-23T00:25:18;10.73;;;8.02;;
78925;SDS011;68321;51.276;7.208;2023-05-23T00:27:45;12.38;;;7.80;;
78925;SDS011;68321;51.276;7.208;2023-05-23T00:30:11;10.05;;;7.47;;
78925;SDS011;68321;51.276;7.208;2023-05-23T00:32:36;11.75;;;8.05;;
78925;SDS011;68321;51.276;7.208;2023-05-23T00:35:02;11.70;;;8.45;;
78925;SDS011;68321;51.276;7.208;2023-05-23T00:37:27;10.10;;;7.07;;
78925;SDS011;68321;51.276;7.208;2023-05-23T00:39:53;11.35;;;7.28;;
78925;SDS011;68321;51.276;7.208;2023-05-23T00:42:18;10.43;;;7.03;;
78925;SDS011;68321;51.276;7.208;2023-05-23T00:44:43;9.67;;;7.03;;
78925;SDS011;68321;51.276;7.208;2023-05-23T00:47:09;8.87;;;6.50;;
78925;SDS011;68321;51.276;7.208;2023-05-23T00:49:37;9.07;;;6.80;;
78925;SDS011;68321;51.276;7.208;2023-05-23T00:52:03;9.65;;;5.82;;
78925;SDS011;68321;51.276;7.208;2023-05-23T00:54:29;7.82;;;6.43;;
78925;SDS011;68321;51.276;7.208;2023-05-23T00:56:57;8.98;;;5.93;;
78925;SDS011;68321;51.276;7.208;2023-05-23T00:59:23;7.65;;;5.13;;
78925;SDS011;68321;51.276;7.208;2023-05-23T01:01:50;7.90;;;6.47;;
78925;SDS011;68321;51.276;7.208;2023-05-23T01:04:16;10.07;;;5.70;;
78925;SDS011;68321;51.276;7.208;2023-05-23T01:06:43;6.95;;;4.88;;
78925;SDS011;68321;51.276;7.208;2023-05-23T01:09:10;6.63;;;5.07;;
78925;SDS011;68321;51.276;7.208;2023-05-23T01:11:43;6.32;;;5.10;;
78925;SDS011;68321;51.276;7.208;2023-05-23T01:14:18;6.40;;;4.93;;
78925;SDS011;68321;51.276;7.208;2023-05-23T01:16:47;6.93;;;4.88;;
78925;SDS011;68321;51.276;7.208;2023-05-23T01:22:10;8.48;;;4.07;;
78925;SDS011;68321;51.276;7.208;2023-05-23T01:27:10;5.27;;;4.00;;
78925;SDS011;68321;51.276;7.208;2023-05-23T01:29:47;5.20;;;3.83;;
78925;SDS011;68321;51.276;7.208;2023-05-23T01:32:15;5.45;;;4.13;;
78925;SDS011;68321;51.276;7.208;2023-05-23T01:34:41;18.98;;;4.10;;
78925;SDS011;68321;51.276;7.208;2023-05-23T01:37:08;4.97;;;3.47;;
78925;SDS011;68321;51.276;7.208;2023-05-23T01:39:38;5.32;;;3.22;;
78925;SDS011;68321;51.276;7.208;2023-05-23T01:42:04;5.95;;;4.30;;
78925;SDS011;68321;51.276;7.208;2023-05-23T01:44:30;5.60;;;3.85;;
78925;SDS011;68321;51.276;7.208;2023-05-23T01:46:55;5.68;;;3.95;;
78925;SDS011;68321;51.276;7.208;2023-05-23T01:49:21;5.85;;;4.15;;
78925;SDS011;68321;51.276;7.208;2023-05-23T01:51:47;5.13;;;4.03;;
78925;SDS011;68321;51.276;7.208;2023-05-23T01:54:13;5.53;;;4.05;;
78925;SDS011;68321;51.276;7.208;2023-05-23T01:56:40;7.07;;;3.97;;
78925;SDS011;68321;51.276;7.208;2023-05-23T01:59:07;6.22;;;4.07;;
78925;SDS011;68321;51.276;7.208;2023-05-23T02:01:33;4.83;;;3.50;;
78925;SDS011;68321;51.276;7.208;2023-05-23T02:03:58;4.68;;;3.50;;
78925;SDS011;68321;51.276;7.208;2023-05-23T02:06:24;6.95;;;3.83;;
78925;SDS011;68321;51.276;7.208;2023-05-23T02:08:49;5.40;;;3.63;;
78925;SDS011;68321;51.276;7.208;2023-05-23T02:11:15;5.85;;;3.45;;
78925;SDS011;68321;51.276;7.208;2023-05-23T02:13:40;5.55;;;3.70;;
78925;SDS011;68321;51.276;7.208;2023-05-23T02:16:05;5.00;;;3.50;;
78925;SDS011;68321;51.276;7.208;2023-05-23T02:18:31;5.90;;;3.97;;
78925;SDS011;68321;51.276;7.208;2023-05-23T02:20:56;5.50;;;3.78;;
78925;SDS011;68321;51.276;7.208;2023-05-23T02:23:22;4.90;;;3.57;;
78925;SDS011;68321;51.276;7.208;2023-05-23T02:25:47;7.10;;;3.55;;
78925;SDS011;68321;51.276;7.208;2023-05-23T02:28:12;6.03;;;3.20;;
78925;SDS011;68321;51.276;7.208;2023-05-23T02:30:38;5.05;;;3.55;;
78925;SDS011;68321;51.276;7.208;2023-05-23T02:33:04;5.78;;;3.90;;
78925;SDS011;68321;51.276;7.208;2023-05-23T02:35:30;5.43;;;4.00;;
78925;SDS011;68321;51.276;7.208;2023-05-23T02:37:56;7.90;;;4.65;;
78925;SDS011;68321;51.276;7.208;2023-05-23T02:40:21;7.40;;;5.80;;
78925;SDS011;68321;51.276;7.208;2023-05-23T02:42:46;6.30;;;5.30;;
78925;SDS011;68321;51.276;7.208;2023-05-23T02:45:12;8.05;;;5.35;;
78925;SDS011;68321;51.276;7.208;2023-05-23T02:47:37;8.90;;;5.97;;
78925;SDS011;68321;51.276;7.208;2023-05-23T02:50:02;8.90;;;6.40;;
78925;SDS011;68321;51.276;7.208;2023-05-23T02:52:28;8.60;;;6.25;;
78925;SDS011;68321;51.276;7.208;2023-05-23T02:54:54;7.13;;;5.47;;
78925;SDS011;68321;51.276;7.208;2023-05-23T02:57:19;8.97;;;6.43;;
78925;SDS011;68321;51.276;7.208;2023-05-23T02:59:45;9.33;;;6.80;;
78925;SDS011;68321;51.276;7.208;2023-05-23T03:02:10;10.17;;;7.43;;
78925;SDS011;68321;51.276;7.208;2023-05-23T03:04:36;13.68;;;8.68;;
78925;SDS011;68321;51.276;7.208;2023-05-23T03:07:02;16.83;;;10.80;;
78925;SDS011;68321;51.276;7.208;2023-05-23T03:09:27;11.27;;;7.83;;
78925;SDS011;68321;51.276;7.208;2023-05-23T03:11:52;9.70;;;7.30;;
78925;SDS011;68321;51.276;7.208;2023-05-23T03:14:18;9.15;;;7.70;;
78925;SDS011;68321;51.276;7.208;2023-05-23T03:16:43;10.52;;;8.07;;
78925;SDS011;68321;51.276;7.208;2023-05-23T03:19:09;11.25;;;7.63;;
78925;SDS011;68321;51.276;7.208;2023-05-23T03:21:34;9.38;;;7.45;;
78925;SDS011;68321;51.276;7.208;2023-05-23T03:24:00;8.60;;;6.80;;
78925;SDS011;68321;51.276;7.208;2023-05-23T03:26:25;9.35;;;5.80;;
78925;SDS011;68321;51.276;7.208;2023-05-23T03:28:51;12.13;;;5.45;;
78925;SDS011;68321;51.276;7.208;2023-05-23T03:31:16;9.30;;;5.32;;
78925;SDS011;68321;51.276;7.208;2023-05-23T03:33:42;8.27;;;5.43;;
78925;SDS011;68321;51.276;7.208;2023-05-23T03:36:07;9.57;;;4.80;;
78925;SDS011;68321;51.276;7.208;2023-05-23T03:38:32;9.47;;;5.20;;
78925;SDS011;68321;51.276;7.208;2023-05-23T03:40:57;9.10;;;4.27;;
78925;SDS011;68321;51.276;7.208;2023-05-23T03:43:23;6.53;;;3.83;;
78925;SDS011;68321;51.276;7.208;2023-05-23T03:45:48;6.38;;;4.20;;
78925;SDS011;68321;51.276;7.208;2023-05-23T03:48:13;8.00;;;3.73;;
78925;SDS011;68321;51.276;7.208;2023-05-23T03:50:39;6.80;;;3.85;;
78925;SDS011;68321;51.276;7.208;2023-05-23T03:53:05;6.50;;;3.37;;
78925;SDS011;68321;51.276;7.208;2023-05-23T03:55:31;9.40;;;3.63;;
78925;SDS011;68321;51.276;7.208;2023-05-23T03:57:56;7.70;;;4.07;;
78925;SDS011;68321;51.276;7.208;2023-05-23T04:00:22;7.20;;;4.15;;
78925;SDS011;68321;51.276;7.208;2023-05-23T04:02:47;8.00;;;4.03;;
78925;SDS011;68321;51.276;7.208;2023-05-23T04:05:13;7.82;;;4.15;;
78925;SDS011;68321;51.276;7.208;2023-05-23T04:07:39;7.10;;;4.15;;
78925;SDS011;68321;51.276;7.208;2023-05-23T04:10:05;6.88;;;4.45;;
78925;SDS011;68321;51.276;7.208;2023-05-23T04:12:31;6.10;;;3.67;;
78925;SDS011;68321;51.276;7.208;2023-05-23T04:14:57;7.57;;;4.50;;
78925;SDS011;68321;51.276;7.208;2023-05-23T04:17:22;7.93;;;4.40;;
78925;SDS011;68321;51.276;7.208;2023-05-23T04:19:48;7.68;;;4.22;;
78925;SDS011;68321;51.276;7.208;2023-05-23T04:24:42;13.87;;;4.30;;
78925;SDS011;68321;51.276;7.208;2023-05-23T04:27:08;8.18;;;5.47;;
78925;SDS011;68321;51.276;7.208;2023-05-23T04:29:33;9.00;;;5.37;;
78925;SDS011;68321;51.276;7.208;2023-05-23T04:32:00;5.57;;;3.38;;
78925;SDS011;68321;51.276;7.208;2023-05-23T04:34:25;8.73;;;5.13;;
78925;SDS011;68321;51.276;7.208;2023-05-23T04:36:51;8.60;;;5.00;;
78925;SDS011;68321;51.276;7.208;2023-05-23T04:39:18;9.70;;;4.93;;
78925;SDS011;68321;51.276;7.208;2023-05-23T04:41:43;7.35;;;4.45;;
78925;SDS011;68321;51.276;7.208;2023-05-23T04:44:11;8.85;;;5.47;;
78925;SDS011;68321;51.276;7.208;2023-05-23T04:46:38;12.45;;;6.25;;
78925;SDS011;68321;51.276;7.208;2023-05-23T04:49:06;9.15;;;5.70;;
78925;SDS011;68321;51.276;7.208;2023-05-23T04:54:00;7.87;;;5.53;;
78925;SDS011;68321;51.276;7.208;2023-05-23T04:56:26;11.73;;;5.75;;
78925;SDS011;68321;51.276;7.208;2023-05-23T04:58:52;10.98;;;5.57;;
78925;SDS011;68321;51.276;7.208;2023-05-23T05:01:18;9.40;;;5.45;;
78925;SDS011;68321;51.276;7.208;2023-05-23T05:03:43;10.30;;;5.70;;
78925;SDS011;68321;51.276;7.208;2023-05-23T05:06:08;12.87;;;7.60;;
78925;SDS011;68321;51.276;7.208;2023-05-23T05:08:34;11.23;;;6.68;;
78925;SDS011;68321;51.276;7.208;2023-05-23T05:11:00;8.65;;;6.30;;
78925;SDS011;68321;51.276;7.208;2023-05-23T05:13:25;12.73;;;6.40;;
78925;SDS011;68321;51.276;7.208;2023-05-23T05:15:50;11.27;;;6.30;;
78925;SDS011;68321;51.276;7.208;2023-05-23T05:18:16;11.68;;;5.70;;
78925;SDS011;68321;51.276;7.208;2023-05-23T05:20:42;9.67;;;5.30;;
78925;SDS011;68321;51.276;7.208;2023-05-23T05:23:07;11.17;;;6.00;;
78925;SDS011;68321;51.276;7.208;2023-05-23T05:25:33;11.85;;;5.70;;
78925;SDS011;68321;51.276;7.208;2023-05-23T05:28:00;7.97;;;5.78;;
78925;SDS011;68321;51.276;7.208;2023-05-23T05:30:29;10.52;;;5.30;;
78925;SDS011;68321;51.276;7.208;2023-05-23T05:32:57;14.18;;;6.22;;
78925;SDS011;68321;51.276;7.208;2023-05-23T05:35:23;8.73;;;5.63;;
78925;SDS011;68321;51.276;7.208;2023-05-23T05:37:48;10.83;;;5.37;;
78925;SDS011;68321;51.276;7.208;2023-05-23T05:40:13;11.23;;;6.10;;
78925;SDS011;68321;51.276;7.208;2023-05-23T05:42:38;9.43;;;5.97;;
78925;SDS011;68321;51.276;7.208;2023-05-23T05:45:04;15.57;;;8.00;;
78925;SDS011;68321;51.276;7.208;2023-05-23T05:47:30;13.93;;;6.30;;
78925;SDS011;68321;51.276;7.208;2023-05-23T05:49:55;10.20;;;5.90;;
78925;SDS011;68321;51.276;7.208;2023-05-23T05:52:21;11.33;;;5.63;;
78925;SDS011;68321;51.276;7.208;2023-05-23T05:54:46;10.48;;;6.53;;
78925;SDS011;68321;51.276;7.208;2023-05-23T05:57:12;9.97;;;6.10;;
78925;SDS011;68321;51.276;7.208;2023-05-23T05:59:37;11.23;;;6.37;;
78925;SDS011;68321;51.276;7.208;2023-05-23T06:02:02;12.80;;;6.77;;
78925;SDS011;68321;51.276;7.208;2023-05-23T06:04:28;10.80;;;6.13;;
78925;SDS011;68321;51.276;7.208;2023-05-23T06:06:53;13.07;;;7.03;;
78925;SDS011;68321;51.276;7.208;2023-05-23T06:09:18;11.73;;;7.37;;
78925;SDS011;68321;51.276;7.208;2023-05-23T06:11:44;15.18;;;6.53;;
78925;SDS011;68321;51.276;7.208;2023-05-23T06:14:09;11.50;;;6.20;;
78925;SDS011;68321;51.276;7.208;2023-05-23T06:16:34;13.43;;;5.47;;
78925;SDS011;68321;51.276;7.208;2023-05-23T06:19:00;12.60;;;6.40;;
78925;SDS011;68321;51.276;7.208;2023-05-23T06:21:25;11.03;;;7.00;;
78925;SDS011;68321;51.276;7.208;2023-05-23T06:23:51;10.23;;;6.28;;
78925;SDS011;68321;51.276;7.208;2023-05-23T06:26:17;14.32;;;7.88;;
78925;SDS011;68321;51.276;7.208;2023-05-23T06:28:42;12.23;;;7.97;;
78925;SDS011;68321;51.276;7.208;2023-05-23T06:31:07;13.97;;;8.47;;
78925;SDS011;68321;51.276;7.208;2023-05-23T06:33:36;12.90;;;9.00;;
78925;SDS011;68321;51.276;7.208;2023-05-23T06:36:01;13.07;;;7.40;;
78925;SDS011;68321;51.276;7.208;2023-05-23T06:38:28;18.83;;;7.60;;
78925;SDS011;68321;51.276;7.208;2023-05-23T06:40:53;12.82;;;8.20;;
78925;SDS011;68321;51.276;7.208;2023-05-23T06:43:19;11.68;;;7.95;;
78925;SDS011;68321;51.276;7.208;2023-05-23T06:45:47;14.50;;;9.20;;
78925;SDS011;68321;51.276;7.208;2023-05-23T06:48:12;11.95;;;8.65;;
78925;SDS011;68321;51.276;7.208;2023-05-23T06:50:38;11.27;;;8.45;;
78925;SDS011;68321;51.276;7.208;2023-05-23T06:53:04;14.55;;;8.25;;
78925;SDS011;68321;51.276;7.208;2023-05-23T06:55:30;12.85;;;7.90;;
78925;SDS011;68321;51.276;7.208;2023-05-23T06:57:57;10.18;;;8.30;;
78925;SDS011;68321;51.276;7.208;2023-05-23T07:00:23;12.63;;;8.50;;
78925;SDS011;68321;51.276;7.208;2023-05-23T07:02:48;11.68;;;8.95;;
78925;SDS011;68321;51.276;7.208;2023-05-23T07:05:14;10.75;;;7.78;;
78925;SDS011;68321;51.276;7.208;2023-05-23T07:07:40;10.98;;;7.20;;
78925;SDS011;68321;51.276;7.208;2023-05-23T07:10:08;11.45;;;7.15;;
78925;SDS011;68321;51.276;7.208;2023-05-23T07:12:34;9.70;;;6.95;;
78925;SDS011;68321;51.276;7.208;2023-05-23T07:15:00;12.57;;;7.85;;
78925;SDS011;68321;51.276;7.208;2023-05-23T07:17:25;9.00;;;5.22;;
78925;SDS011;68321;51.276;7.208;2023-05-23T07:19:53;9.77;;;6.32;;
78925;SDS011;68321;51.276;7.208;2023-05-23T07:22:19;7.82;;;5.65;;
78925;SDS011;68321;51.276;7.208;2023-05-23T07:24:44;8.82;;;5.57;;
78925;SDS011;68321;51.276;7.208;2023-05-23T07:27:10;8.40;;;6.32;;
78925;SDS011;68321;51.276;7.208;2023-05-23T07:29:35;9.02;;;5.72;;
78925;SDS011;68321;51.276;7.208;2023-05-23T07:32:00;9.80;;;6.10;;
78925;SDS011;68321;51.276;7.208;2023-05-23T07:34:26;10.32;;;5.45;;
78925;SDS011;68321;51.276;7.208;2023-05-23T07:36:52;10.63;;;5.65;;
78925;SDS011;68321;51.276;7.208;2023-05-23T07:39:17;11.23;;;6.43;;
78925;SDS011;68321;51.276;7.208;2023-05-23T07:41:46;9.15;;;6.18;;
78925;SDS011;68321;51.276;7.208;2023-05-23T07:44:13;9.27;;;6.13;;
78925;SDS011;68321;51.276;7.208;2023-05-23T07:46:38;12.45;;;6.95;;
78925;SDS011;68321;51.276;7.208;2023-05-23T07:49:03;9.47;;;6.20;;
78925;SDS011;68321;51.276;7.208;2023-05-23T07:51:29;13.30;;;6.72;;
78925;SDS011;68321;51.276;7.208;2023-05-23T07:53:54;12.25;;;6.25;;
78925;SDS011;68321;51.276;7.208;2023-05-23T07:56:20;13.25;;;6.53;;
78925;SDS011;68321;51.276;7.208;2023-05-23T07:58:46;10.88;;;6.30;;
78925;SDS011;68321;51.276;7.208;2023-05-23T08:01:11;11.53;;;6.83;;
78925;SDS011;68321;51.276;7.208;2023-05-23T08:03:36;10.88;;;6.90;;
78925;SDS011;68321;51.276;7.208;2023-05-23T08:06:02;11.40;;;7.20;;
78925;SDS011;68321;51.276;7.208;2023-05-23T08:08:27;10.00;;;6.72;;
78925;SDS011;68321;51.276;7.208;2023-05-23T08:10:52;11.68;;;6.93;;
78925;SDS011;68321;51.276;7.208;2023-05-23T08:13:18;11.00;;;6.67;;
78925;SDS011;68321;51.276;7.208;2023-05-23T08:15:46;11.32;;;6.60;;
78925;SDS011;68321;51.276;7.208;2023-05-23T08:18:11;12.13;;;6.43;;
78925;SDS011;68321;51.276;7.208;2023-05-23T08:20:37;13.60;;;6.25;;
78925;SDS011;68321;51.276;7.208;2023-05-23T08:23:03;12.45;;;6.63;;
78925;SDS011;68321;51.276;7.208;2023-05-23T08:25:28;9.33;;;5.77;;
78925;SDS011;68321;51.276;7.208;2023-05-23T08:27:55;11.07;;;6.80;;
78925;SDS011;68321;51.276;7.208;2023-05-23T08:30:22;10.60;;;6.45;;
78925;SDS011;68321;51.276;7.208;2023-05-23T08:32:49;13.75;;;6.45;;
78925;SDS011;68321;51.276;7.208;2023-05-23T08:35:14;13.18;;;6.22;;
78925;SDS011;68321;51.276;7.208;2023-05-23T08:37:40;11.30;;;6.07;;
78925;SDS011;68321;51.276;7.208;2023-05-23T08:40:06;10.88;;;6.38;;
78925;SDS011;68321;51.276;7.208;2023-05-23T08:42:32;11.95;;;6.32;;
78925;SDS011;68321;51.276;7.208;2023-05-23T08:44:58;12.98;;;6.70;;
78925;SDS011;68321;51.276;7.208;2023-05-23T08:47:23;10.77;;;6.27;;
78925;SDS011;68321;51.276;7.208;2023-05-23T08:49:49;12.45;;;6.30;;
78925;SDS011;68321;51.276;7.208;2023-05-23T08:52:16;14.98;;;5.82;;
78925;SDS011;68321;51.276;7.208;2023-05-23T08:54:42;13.40;;;6.63;;
78925;SDS011;68321;51.276;7.208;2023-05-23T08:57:08;14.85;;;7.57;;
78925;SDS011;68321;51.276;7.208;2023-05-23T08:59:33;13.43;;;7.82;;
78925;SDS011;68321;51.276;7.208;2023-05-23T09:01:59;16.50;;;9.55;;
78925;SDS011;68321;51.276;7.208;2023-05-23T09:04:24;19.13;;;9.73;;
78925;SDS011;68321;51.276;7.208;2023-05-23T09:06:50;15.10;;;8.63;;
78925;SDS011;68321;51.276;7.208;2023-05-23T09:09:16;17.63;;;10.20;;
78925;SDS011;68321;51.276;7.208;2023-05-23T09:11:41;15.85;;;9.95;;
78925;SDS011;68321;51.276;7.208;2023-05-23T09:14:09;16.42;;;9.95;;
78925;SDS011;68321;51.276;7.208;2023-05-23T09:16:35;15.88;;;8.65;;
78925;SDS011;68321;51.276;7.208;2023-05-23T09:19:08;17.07;;;9.07;;
78925;SDS011;68321;51.276;7.208;2023-05-23T09:21:35;13.00;;;7.60;;
78925;SDS011;68321;51.276;7.208;2023-05-23T09:24:00;11.65;;;7.50;;
78925;SDS011;68321;51.276;7.208;2023-05-23T09:26:26;12.32;;;8.85;;
78925;SDS011;68321;51.276;7.208;2023-05-23T09:28:52;10.10;;;7.82;;
78925;SDS011;68321;51.276;7.208;2023-05-23T09:31:21;15.13;;;7.85;;
78925;SDS011;68321;51.276;7.208;2023-05-23T09:33:50;14.35;;;9.13;;
78925;SDS011;68321;51.276;7.208;2023-05-23T09:36:16;14.07;;;9.07;;
78925;SDS011;68321;51.276;7.208;2023-05-23T09:38:42;18.58;;;10.10;;
78925;SDS011;68321;51.276;7.208;2023-05-23T09:41:09;16.65;;;10.10;;
78925;SDS011;68321;51.276;7.208;2023-05-23T09:43:38;21.63;;;9.98;;
78925;SDS011;68321;51.276;7.208;2023-05-23T09:46:10;14.52;;;9.95;;
78925;SDS011;68321;51.276;7.208;2023-05-23T09:48:36;21.88;;;14.60;;
78925;SDS011;68321;51.276;7.208;2023-05-23T09:51:06;19.45;;;9.63;;
78925;SDS011;68321;51.276;7.208;2023-05-23T09:53:32;19.23;;;9.07;;
78925;SDS011;68321;51.276;7.208;2023-05-23T09:55:58;12.68;;;7.93;;
78925;SDS011;68321;51.276;7.208;2023-05-23T09:58:24;13.77;;;7.88;;
78925;SDS011;68321;51.276;7.208;2023-05-23T10:00:51;17.95;;;7.28;;
78925;SDS011;68321;51.276;7.208;2023-05-23T10:03:18;11.55;;;6.30;;
78925;SDS011;68321;51.276;7.208;2023-05-23T10:05:50;10.20;;;5.95;;
78925;SDS011;68321;51.276;7.208;2023-05-23T10:08:18;15.20;;;6.65;;
78925;SDS011;68321;51.276;7.208;2023-05-23T10:13:21;15.13;;;8.52;;
78925;SDS011;68321;51.276;7.208;2023-05-23T10:15:48;21.27;;;8.93;;
78925;SDS011;68321;51.276;7.208;2023-05-23T10:18:17;13.10;;;7.05;;
78925;SDS011;68321;51.276;7.208;2023-05-23T10:20:46;13.98;;;7.65;;
78925;SDS011;68321;51.276;7.208;2023-05-23T10:23:13;15.20;;;7.80;;
78925;SDS011;68321;51.276;7.208;2023-05-23T10:25:39;11.60;;;7.50;;
78925;SDS011;68321;51.276;7.208;2023-05-23T10:28:06;18.75;;;9.02;;
78925;SDS011;68321;51.276;7.208;2023-05-23T10:30:31;14.25;;;8.40;;
78925;SDS011;68321;51.276;7.208;2023-05-23T10:32:58;12.70;;;7.47;;
78925;SDS011;68321;51.276;7.208;2023-05-23T10:38:29;13.65;;;7.43;;
78925;SDS011;68321;51.276;7.208;2023-05-23T10:41:09;10.23;;;5.28;;
78925;SDS011;68321;51.276;7.208;2023-05-23T10:43:42;12.43;;;6.50;;
78925;SDS011;68321;51.276;7.208;2023-05-23T10:46:12;11.63;;;6.85;;
78925;SDS011;68321;51.276;7.208;2023-05-23T10:48:41;12.57;;;7.07;;
78925;SDS011;68321;51.276;7.208;2023-05-23T10:53:35;12.65;;;7.95;;
78925;SDS011;68321;51.276;7.208;2023-05-23T10:56:05;14.98;;;8.75;;
78925;SDS011;68321;51.276;7.208;2023-05-23T10:58:32;13.40;;;6.43;;
78925;SDS011;68321;51.276;7.208;2023-05-23T11:00:59;14.73;;;7.63;;
78925;SDS011;68321;51.276;7.208;2023-05-23T11:04:08;14.27;;;7.43;;
78925;SDS011;68321;51.276;7.208;2023-05-23T11:17:16;13.57;;;7.50;;
78925;SDS011;68321;51.276;7.208;2023-05-23T11:20:00;14.05;;;5.88;;
78925;SDS011;68321;51.276;7.208;2023-05-23T11:22:30;10.57;;;5.95;;
78925;SDS011;68321;51.276;7.208;2023-05-23T11:24:56;12.38;;;7.18;;
78925;SDS011;68321;51.276;7.208;2023-05-23T11:32:39;12.32;;;5.40;;
78925;SDS011;68321;51.276;7.208;2023-05-23T11:35:05;10.45;;;5.45;;
78925;SDS011;68321;51.276;7.208;2023-05-23T11:37:35;11.45;;;6.25;;
78925;SDS011;68321;51.276;7.208;2023-05-23T11:42:57;9.35;;;5.60;;
78925;SDS011;68321;51.276;7.208;2023-05-23T11:45:23;8.40;;;5.38;;
78925;SDS011;68321;51.276;7.208;2023-05-23T11:47:49;9.30;;;5.53;;
78925;SDS011;68321;51.276;7.208;2023-05-23T11:50:14;11.77;;;5.73;;
78925;SDS011;68321;51.276;7.208;2023-05-23T11:52:40;10.70;;;5.35;;
78925;SDS011;68321;51.276;7.208;2023-05-23T11:55:06;13.55;;;5.85;;
78925;SDS011;68321;51.276;7.208;2023-05-23T11:57:32;14.30;;;5.57;;
78925;SDS011;68321;51.276;7.208;2023-05-23T11:59:58;8.27;;;5.17;;
78925;SDS011;68321;51.276;7.208;2023-05-23T12:02:24;8.93;;;5.30;;
78925;SDS011;68321;51.276;7.208;2023-05-23T12:04:52;8.13;;;5.25;;
78925;SDS011;68321;51.276;7.208;2023-05-23T12:07:20;11.83;;;5.73;;
78925;SDS011;68321;51.276;7.208;2023-05-23T12:09:45;11.73;;;5.05;;
78925;SDS011;68321;51.276;7.208;2023-05-23T12:12:11;10.82;;;4.95;;
78925;SDS011;68321;51.276;7.208;2023-05-23T12:14:37;8.75;;;4.93;;
78925;SDS011;68321;51.276;7.208;2023-05-23T12:17:08;10.73;;;4.20;;
78925;SDS011;68321;51.276;7.208;2023-05-23T12:19:35;11.32;;;4.13;;
78925;SDS011;68321;51.276;7.208;2023-05-23T12:22:04;7.47;;;4.30;;
78925;SDS011;68321;51.276;7.208;2023-05-23T12:24:31;8.10;;;4.07;;
78925;SDS011;68321;51.276;7.208;2023-05-23T12:26:57;6.87;;;3.97;;
78925;SDS011;68321;51.276;7.208;2023-05-23T12:29:30;8.05;;;3.72;;
78925;SDS011;68321;51.276;7.208;2023-05-23T12:31:57;9.27;;;5.28;;
78925;SDS011;68321;51.276;7.208;2023-05-23T12:34:22;5.88;;;3.38;;
78925;SDS011;68321;51.276;7.208;2023-05-23T12:36:48;9.35;;;4.25;;
78925;SDS011;68321;51.276;7.208;2023-05-23T12:39:13;9.87;;;4.23;;
78925;SDS011;68321;51.276;7.208;2023-05-23T12:41:41;10.85;;;4.60;;
78925;SDS011;68321;51.276;7.208;2023-05-23T12:44:08;8.98;;;4.50;;
78925;SDS011;68321;51.276;7.208;2023-05-23T12:46:33;10.95;;;5.38;;
78925;SDS011;68321;51.276;7.208;2023-05-23T12:48:59;8.52;;;4.63;;
78925;SDS011;68321;51.276;7.208;2023-05-23T12:51:24;11.40;;;4.63;;
78925;SDS011;68321;51.276;7.208;2023-05-23T12:53:49;11.05;;;4.45;;
78925;SDS011;68321;51.276;7.208;2023-05-23T12:56:15;12.97;;;5.00;;
78925;SDS011;68321;51.276;7.208;2023-05-23T12:58:40;12.97;;;4.70;;
78925;SDS011;68321;51.276;7.208;2023-05-23T13:01:05;8.50;;;3.93;;
78925;SDS011;68321;51.276;7.208;2023-05-23T13:03:31;7.88;;;3.65;;
78925;SDS011;68321;51.276;7.208;2023-05-23T13:05:56;7.70;;;3.90;;
78925;SDS011;68321;51.276;7.208;2023-05-23T13:08:22;5.68;;;3.65;;
78925;SDS011;68321;51.276;7.208;2023-05-23T13:10:48;6.32;;;3.20;;
78925;SDS011;68321;51.276;7.208;2023-05-23T13:13:14;6.57;;;3.20;;
78925;SDS011;68321;51.276;7.208;2023-05-23T13:15:39;7.28;;;3.50;;
78925;SDS011;68321;51.276;7.208;2023-05-23T13:18:05;5.65;;;3.58;;
78925;SDS011;68321;51.276;7.208;2023-05-23T13:20:30;11.43;;;5.32;;
78925;SDS011;68321;51.276;7.208;2023-05-23T13:22:56;7.47;;;3.08;;
78925;SDS011;68321;51.276;7.208;2023-05-23T13:25:21;9.48;;;3.85;;
78925;SDS011;68321;51.276;7.208;2023-05-23T13:27:47;6.32;;;3.33;;
78925;SDS011;68321;51.276;7.208;2023-05-23T13:30:13;8.60;;;3.63;;
78925;SDS011;68321;51.276;7.208;2023-05-23T13:32:38;10.20;;;4.25;;
78925;SDS011;68321;51.276;7.208;2023-05-23T13:35:03;15.20;;;4.83;;
78925;SDS011;68321;51.276;7.208;2023-05-23T13:37:29;13.73;;;5.32;;
78925;SDS011;68321;51.276;7.208;2023-05-23T13:39:54;10.17;;;3.90;;
78925;SDS011;68321;51.276;7.208;2023-05-23T13:42:20;11.35;;;3.92;;
78925;SDS011;68321;51.276;7.208;2023-05-23T13:44:45;10.47;;;3.47;;
78925;SDS011;68321;51.276;7.208;2023-05-23T13:47:13;10.40;;;3.87;;
78925;SDS011;68321;51.276;7.208;2023-05-23T13:52:05;11.23;;;3.92;;
78925;SDS011;68321;51.276;7.208;2023-05-23T13:54:31;9.07;;;3.63;;
78925;SDS011;68321;51.276;7.208;2023-05-23T13:56:56;9.13;;;4.38;;
78925;SDS011;68321;51.276;7.208;2023-05-23T13:59:23;7.50;;;3.65;;
78925;SDS011;68321;51.276;7.208;2023-05-23T14:01:51;9.93;;;4.25;;
78925;SDS011;68321;51.276;7.208;2023-05-23T14:04:17;10.57;;;3.30;;
78925;SDS011;68321;51.276;7.208;2023-05-23T14:06:42;17.42;;;6.93;;
78925;SDS011;68321;51.276;7.208;2023-05-23T14:09:07;9.85;;;4.20;;
78925;SDS011;68321;51.276;7.208;2023-05-23T14:11:33;10.65;;;3.60;;
78925;SDS011;68321;51.276;7.208;2023-05-23T14:13:59;9.75;;;4.00;;
78925;SDS011;68321;51.276;7.208;2023-05-23T14:16:24;9.80;;;3.55;;
78925;SDS011;68321;51.276;7.208;2023-05-23T14:18:49;9.27;;;3.07;;
78925;SDS011;68321;51.276;7.208;2023-05-23T14:21:15;8.18;;;3.33;;
78925;SDS011;68321;51.276;7.208;2023-05-23T14:23:40;11.23;;;3.75;;
78925;SDS011;68321;51.276;7.208;2023-05-23T14:26:06;7.68;;;3.67;;
78925;SDS011;68321;51.276;7.208;2023-05-23T14:28:31;11.50;;;3.40;;
78925;SDS011;68321;51.276;7.208;2023-05-23T14:30:56;11.23;;;3.92;;
78925;SDS011;68321;51.276;7.208;2023-05-23T14:33:23;11.00;;;3.78;;
78925;SDS011;68321;51.276;7.208;2023-05-23T14:35:48;12.30;;;4.25;;
78925;SDS011;68321;51.276;7.208;2023-05-23T14:38:14;11.90;;;4.03;;
78925;SDS011;68321;51.276;7.208;2023-05-23T14:40:40;8.52;;;3.58;;
78925;SDS011;68321;51.276;7.208;2023-05-23T14:43:05;10.57;;;3.53;;
78925;SDS011;68321;51.276;7.208;2023-05-23T14:45:30;8.90;;;3.58;;
78925;SDS011;68321;51.276;7.208;2023-05-23T14:47:56;6.97;;;3.67;;
78925;SDS011;68321;51.276;7.208;2023-05-23T14:50:21;10.43;;;3.63;;
78925;SDS011;68321;51.276;7.208;2023-05-23T14:52:46;12.67;;;4.30;;
78925;SDS011;68321;51.276;7.208;2023-05-23T14:55:12;8.30;;;2.90;;
78925;SDS011;68321;51.276;7.208;2023-05-23T14:57:37;8.57;;;2.88;;
78925;SDS011;68321;51.276;7.208;2023-05-23T15:00:03;11.27;;;2.78;;
78925;SDS011;68321;51.276;7.208;2023-05-23T15:02:30;8.30;;;3.60;;
78925;SDS011;68321;51.276;7.208;2023-05-23T15:04:56;8.55;;;3.85;;
78925;SDS011;68321;51.276;7.208;2023-05-23T15:07:21;6.72;;;2.78;;
78925;SDS011;68321;51.276;7.208;2023-05-23T15:09:47;14.50;;;7.30;;
78925;SDS011;68321;51.276;7.208;2023-05-23T15:12:12;11.45;;;3.60;;
78925;SDS011;68321;51.276;7.208;2023-05-23T15:14:39;10.02;;;4.70;;